Time;durP1;ratioP1;P1;durP2;ratioP2;P2;SDS_P1;SDS_P2;PMS_P1;PMS_P2;Temp;Humidity;BMP_temperature;BMP_pressure;BME280_temperature;BME280_humidity;BME280_pressure;Samples;Min_cycle;Max_cycle;Signal;HPM_P1;HPM_P2
2022/06/05 00:01:23;;;;;;;;;;;22.50;59.90;;;;;;5024465;28;20268;-67
2022/06/05 00:03:55;;;;;;;;;;;22.50;59.90;;;;;;5023235;28;21659;-68
2022/06/05 00:06:33;;;;;;;;;;;22.50;59.70;;;;;;5023940;28;19920;-68
2022/06/05 00:09:17;;;;;;;;;;;22.50;59.80;;;;;;5009020;28;20566;-68
2022/06/05 00:11:48;;;;;;;;;;;22.50;59.60;;;;;;4981901;28;20292;-67
2022/06/05 00:14:14;;;;;;;;;;;22.50;59.70;;;;;;4983651;28;19918;-66
2022/06/05 00:16:39;;;;;;;;;;;22.50;59.80;;;;;;5024443;28;19919;-68
2022/06/05 00:19:05;;;;;;;;;;;22.50;59.90;;;;;;5026486;28;19939;-67
2022/06/05 00:21:30;;;;;;;;;;;22.50;59.70;;;;;;5008797;28;19914;-68
2022/06/05 00:23:56;;;;;;;;;;;22.50;59.70;;;;;;5006574;28;19914;-67
2022/06/05 00:26:31;;;;;;;;;;;22.50;59.90;;;;;;5023413;28;20375;-68
2022/06/05 00:29:02;;;;;;;;;;;22.50;59.70;;;;;;5026198;28;19917;-68
2022/06/05 00:31:32;;;;;;;;;;;22.50;59.70;;;;;;4997668;28;19921;-67
2022/06/05 00:33:57;;;;;;;;;;;22.50;59.50;;;;;;5005680;28;20301;-68
2022/06/05 00:36:27;;;;;;;;;;;22.50;59.70;;;;;;5021590;28;19920;-68
2022/06/05 00:38:53;;;;;;;;;;;22.50;59.70;;;;;;5024857;28;19917;-68
2022/06/05 00:41:21;;;;;;;;;;;22.50;59.50;;;;;;5014083;28;19921;-67
2022/06/05 00:43:46;;;;;;;;;;;22.50;59.70;;;;;;5005225;28;20419;-68
2022/06/05 00:46:12;;;;;;;;;;;22.50;59.70;;;;;;5017190;28;19917;-68
2022/06/05 00:48:37;;;;;;;;;;;22.50;59.70;;;;;;5024270;28;20411;-68
2022/06/05 00:51:03;;;;;;;;;;;22.50;59.80;;;;;;5017205;28;19925;-69
2022/06/05 00:53:28;;;;;;;;;;;22.40;59.60;;;;;;5005646;28;19914;-68
2022/06/05 00:55:54;;;;;;;;;;;22.50;59.70;;;;;;5014716;28;19914;-68
2022/06/05 00:58:19;;;;;;;;;;;22.40;59.60;;;;;;5024524;28;19921;-68
2022/06/05 01:00:52;;;;;;;;;;;22.50;59.60;;;;;;5018763;28;19914;-68
2022/06/05 01:03:17;;;;;;;;;;;22.40;59.60;;;;;;5004785;28;19983;-69
2022/06/05 01:05:42;;;;;;;;;;;22.40;59.50;;;;;;5010806;28;20395;-67
2022/06/05 01:08:08;;;;;;;;;;;22.40;59.50;;;;;;5025135;28;19925;-67
2022/06/05 01:10:36;;;;;;;;;;;22.40;59.30;;;;;;5022704;28;19921;-68
2022/06/05 01:13:04;;;;;;;;;;;22.50;59.50;;;;;;5004464;28;20135;-67
2022/06/05 01:15:33;;;;;;;;;;;22.40;59.60;;;;;;5007057;28;19936;-67
2022/06/05 01:18:02;;;;;;;;;;;22.40;59.60;;;;;;5025079;28;20288;-68
2022/06/05 01:20:46;;;;;;;;;;;22.40;59.30;;;;;;5024823;28;20012;-68
2022/06/05 01:23:30;;;;;;;;;;;22.40;59.40;;;;;;5004634;28;19964;-67
2022/06/05 01:26:03;;;;;;;;;;;22.40;59.30;;;;;;5025375;28;20395;-67
2022/06/05 01:28:33;;;;;;;;;;;22.40;59.30;;;;;;5007737;28;19939;-67
2022/06/05 01:31:19;;;;;;;;;;;22.40;59.50;;;;;;5007875;28;19921;-64
2022/06/05 01:33:48;;;;;;;;;;;22.40;59.30;;;;;;5024018;28;20141;-67
2022/06/05 01:36:13;;;;;;;;;;;22.40;59.40;;;;;;5007628;28;19925;-67
2022/06/05 01:38:54;;;;;;;;;;;22.40;59.40;;;;;;5024482;28;19913;-67
2022/06/05 01:41:22;;;;;;;;;;;22.40;59.40;;;;;;5025558;28;19917;-68
2022/06/05 01:43:48;;;;;;;;;;;22.40;59.30;;;;;;5030283;28;19964;-68
2022/06/05 01:46:19;;;;;;;;;;;22.40;59.50;;;;;;5007487;28;19913;-67
2022/06/05 01:48:46;;;;;;;;;;;22.40;59.40;;;;;;4982655;28;19956;-67
2022/06/05 01:51:15;;;;;;;;;;;22.40;59.50;;;;;;5006194;28;19920;-66
2022/06/05 01:53:42;;;;;;;;;;;22.40;59.40;;;;;;5006658;28;19913;-67
2022/06/05 01:56:08;;;;;;;;;;;22.40;59.20;;;;;;5007277;28;20382;-67
2022/06/05 01:58:35;;;;;;;;;;;22.40;59.40;;;;;;5024389;28;20468;-67
2022/06/05 02:01:02;;;;;;;;;;;22.40;60.10;;;;;;5025126;28;19956;-63
2022/06/05 02:03:31;;;;;;;;;;;22.30;59.30;;;;;;5006898;28;19971;-66
2022/06/05 02:06:06;;;;;;;;;;;22.40;59.50;;;;;;5005069;28;19920;-67
2022/06/05 02:08:41;;;;;;;;;;;22.40;59.50;;;;;;5005791;28;19921;-67
2022/06/05 02:11:08;;;;;;;;;;;22.30;59.40;;;;;;5007437;28;19913;-66
2022/06/05 02:13:33;;;;;;;;;;;22.30;59.30;;;;;;5005613;28;19917;-67
2022/06/05 02:15:59;;;;;;;;;;;22.30;59.40;;;;;;5024663;28;20008;-67
2022/06/05 02:18:24;;;;;;;;;;;22.30;59.40;;;;;;5000664;28;19913;-67
2022/06/05 02:20:50;;;;;;;;;;;22.30;59.50;;;;;;5002367;28;20560;-67
2022/06/05 02:23:16;;;;;;;;;;;22.30;59.30;;;;;;5005464;28;19917;-67
2022/06/05 02:25:41;;;;;;;;;;;22.30;59.40;;;;;;5023910;28;19940;-67
2022/06/05 02:28:07;;;;;;;;;;;22.30;59.50;;;;;;5022346;28;19921;-67
2022/06/05 02:30:38;;;;;;;;;;;22.30;59.30;;;;;;5006030;28;19917;-67
2022/06/05 02:33:06;;;;;;;;;;;22.30;59.60;;;;;;5005471;28;19913;-67
2022/06/05 02:35:49;;;;;;;;;;;22.30;59.40;;;;;;5006179;28;19920;-67
2022/06/05 02:38:30;;;;;;;;;;;22.30;59.50;;;;;;5004768;28;19917;-67
2022/06/05 02:40:55;;;;;;;;;;;22.30;59.20;;;;;;5024060;28;19913;-67
2022/06/05 02:43:23;;;;;;;;;;;22.30;59.30;;;;;;5023180;28;19920;-67
2022/06/05 02:45:55;;;;;;;;;;;22.30;59.30;;;;;;5005963;28;20268;-67
2022/06/05 02:48:24;;;;;;;;;;;22.30;59.20;;;;;;5014578;28;20430;-68
2022/06/05 02:50:52;;;;;;;;;;;22.30;59.60;;;;;;4986625;28;20395;-66
2022/06/05 02:53:17;;;;;;;;;;;22.30;59.30;;;;;;4985297;28;19936;-67
2022/06/05 02:55:43;;;;;;;;;;;22.30;59.50;;;;;;5003531;28;20557;-67
2022/06/05 02:58:08;;;;;;;;;;;22.30;60.00;;;;;;5025968;28;19929;-67
2022/06/05 03:00:34;;;;;;;;;;;22.30;59.30;;;;;;5026001;28;19913;-67
2022/06/05 03:05:45;;;;;;;;;;;22.30;59.50;;;;;;5023267;28;19935;-68
2022/06/05 03:08:11;;;;;;;;;;;22.30;59.40;;;;;;5030678;28;19917;-68
2022/06/05 03:10:36;;;;;;;;;;;22.30;59.30;;;;;;5025303;28;19992;-68
2022/06/05 03:13:02;;;;;;;;;;;22.30;59.50;;;;;;5035373;28;20178;-68
2022/06/05 03:15:28;;;;;;;;;;;22.30;59.50;;;;;;5023060;28;20004;-67
2022/06/05 03:17:53;;;;;;;;;;;22.30;59.30;;;;;;5027607;28;19944;-68
2022/06/05 03:20:18;;;;;;;;;;;22.30;59.40;;;;;;5043169;28;20050;-68
2022/06/05 03:22:44;;;;;;;;;;;22.30;59.40;;;;;;5039316;28;19913;-68
2022/06/05 03:25:11;;;;;;;;;;;22.30;59.20;;;;;;5023121;28;19920;-68
2022/06/05 03:27:36;;;;;;;;;;;22.30;59.20;;;;;;5005008;28;19923;-68
2022/06/05 03:30:02;;;;;;;;;;;22.30;59.40;;;;;;5043332;28;19920;-68
2022/06/05 03:32:27;;;;;;;;;;;22.30;59.30;;;;;;5021140;28;19972;-67
2022/06/05 03:34:53;;;;;;;;;;;22.30;59.40;;;;;;5003431;28;19921;-68
2022/06/05 03:37:18;;;;;;;;;;;22.30;59.20;;;;;;4999517;28;20559;-68
2022/06/05 03:39:44;;;;;;;;;;;22.30;59.40;;;;;;5020655;28;19918;-68
2022/06/05 03:42:09;;;;;;;;;;;22.30;59.10;;;;;;5019737;28;20566;-67
2022/06/05 03:44:35;;;;;;;;;;;22.30;59.30;;;;;;5007738;28;19913;-68
2022/06/05 03:47:01;;;;;;;;;;;22.30;59.40;;;;;;4999434;28;20002;-68
2022/06/05 03:49:26;;;;;;;;;;;22.30;59.80;;;;;;5017940;28;20008;-68
2022/06/05 03:51:52;;;;;;;;;;;22.30;59.30;;;;;;5024580;28;19920;-68
2022/06/05 03:54:17;;;;;;;;;;;22.30;59.10;;;;;;5015674;28;19996;-66
2022/06/05 03:56:43;;;;;;;;;;;22.30;59.10;;;;;;5003927;28;20075;-67
2022/06/05 03:59:08;;;;;;;;;;;22.30;59.40;;;;;;5017013;28;19952;-67
2022/06/05 04:01:33;;;;;;;;;;;22.30;59.30;;;;;;5023793;28;19917;-68
2022/06/05 04:03:59;;;;;;;;;;;22.30;59.30;;;;;;5019539;28;19921;-66
2022/06/05 04:06:28;;;;;;;;;;;22.30;59.10;;;;;;5007667;28;19920;-67
2022/06/05 04:08:57;;;;;;;;;;;22.20;59.20;;;;;;5006968;28;20014;-67
2022/06/05 04:11:22;;;;;;;;;;;22.30;59.30;;;;;;5001434;28;20382;-67
2022/06/05 04:13:48;;;;;;;;;;;22.30;59.30;;;;;;5002317;28;19920;-67
2022/06/05 04:16:14;;;;;;;;;;;22.30;59.20;;;;;;4989447;28;19914;-67
2022/06/05 04:18:39;;;;;;;;;;;22.30;59.10;;;;;;5004986;28;19917;-68
2022/06/05 04:21:06;;;;;;;;;;;22.20;59.20;;;;;;5027195;28;19936;-68
2022/06/05 04:23:31;;;;;;;;;;;22.20;59.20;;;;;;5002747;28;20456;-68
2022/06/05 04:25:57;;;;;;;;;;;22.20;59.90;;;;;;5006763;28;19943;-69
2022/06/05 04:28:22;;;;;;;;;;;22.20;59.50;;;;;;5003223;28;19953;-68
2022/06/05 04:30:48;;;;;;;;;;;22.20;59.30;;;;;;5025476;28;19920;-68
2022/06/05 04:33:13;;;;;;;;;;;22.20;59.20;;;;;;5022959;28;19920;-68
2022/06/05 04:35:39;;;;;;;;;;;22.20;59.20;;;;;;5008645;28;20396;-68
2022/06/05 04:38:04;;;;;;;;;;;22.30;59.50;;;;;;5003031;28;19917;-68
2022/06/05 04:40:30;;;;;;;;;;;22.30;58.90;;;;;;5021781;28;19914;-68
2022/06/05 04:42:55;;;;;;;;;;;22.30;58.90;;;;;;5005636;28;19913;-69
2022/06/05 04:45:20;;;;;;;;;;;22.30;58.90;;;;;;5012380;28;19967;-67
2022/06/05 04:47:46;;;;;;;;;;;22.30;58.80;;;;;;4992439;28;19981;-65
2022/06/05 04:50:11;;;;;;;;;;;22.40;58.80;;;;;;5016663;28;20310;-63
2022/06/05 04:52:37;;;;;;;;;;;22.40;58.80;;;;;;5021777;28;19914;-65
2022/06/05 04:55:02;;;;;;;;;;;22.40;58.60;;;;;;5016338;28;19932;-67
2022/06/05 04:57:28;;;;;;;;;;;22.40;58.70;;;;;;4994892;28;19914;-66
2022/06/05 04:59:54;;;;;;;;;;;22.40;58.40;;;;;;5005067;28;19948;-68
2022/06/05 05:02:20;;;;;;;;;;;22.40;58.80;;;;;;5003623;28;20322;-69
2022/06/05 05:04:47;;;;;;;;;;;22.40;58.60;;;;;;5005198;28;19939;-66
2022/06/05 05:07:15;;;;;;;;;;;22.40;58.60;;;;;;5006120;28;19960;-67
2022/06/05 05:09:41;;;;;;;;;;;22.40;58.70;;;;;;4978857;28;19949;-67
2022/06/05 05:12:08;;;;;;;;;;;22.40;58.40;;;;;;5006013;28;19920;-68
2022/06/05 05:14:33;;;;;;;;;;;22.40;58.50;;;;;;4988074;28;20060;-68
2022/06/05 05:16:59;;;;;;;;;;;22.40;58.70;;;;;;5005890;28;19917;-68
2022/06/05 05:19:24;;;;;;;;;;;22.40;58.50;;;;;;5005614;28;19964;-67
2022/06/05 05:21:50;;;;;;;;;;;22.50;58.50;;;;;;5005792;28;19920;-66
2022/06/05 05:24:15;;;;;;;;;;;22.50;58.80;;;;;;5005641;28;20296;-65
2022/06/05 05:26:41;;;;;;;;;;;22.50;58.80;;;;;;5005953;28;19913;-67
2022/06/05 05:29:06;;;;;;;;;;;22.50;58.70;;;;;;5005833;28;19920;-67
2022/06/05 05:31:33;;;;;;;;;;;22.50;58.30;;;;;;5005803;28;19921;-66
2022/06/05 05:33:59;;;;;;;;;;;22.50;58.10;;;;;;5006026;28;19920;-67
2022/06/05 05:36:24;;;;;;;;;;;22.50;58.40;;;;;;5005540;28;19913;-69
2022/06/05 05:44:18;;;;;;;;;;;22.50;58.50;;;;;;5005260;28;19920;-67
2022/06/05 05:46:44;;;;;;;;;;;22.50;58.70;;;;;;5006030;28;19917;-67
2022/06/05 05:49:09;;;;;;;;;;;22.50;59.00;;;;;;5005206;28;19921;-68
2022/06/05 05:51:35;;;;;;;;;;;22.50;58.70;;;;;;5005441;28;20414;-67
2022/06/05 05:54:00;;;;;;;;;;;22.50;58.90;;;;;;5005140;28;20575;-67
2022/06/05 05:56:26;;;;;;;;;;;22.50;59.50;;;;;;5004800;28;20005;-68
2022/06/05 05:58:51;;;;;;;;;;;22.50;58.90;;;;;;5005387;28;19925;-67
2022/06/05 06:01:17;;;;;;;;;;;22.40;58.90;;;;;;5005449;28;19913;-67
2022/06/05 06:03:42;;;;;;;;;;;22.50;59.10;;;;;;5005992;28;20298;-67
2022/06/05 06:06:07;;;;;;;;;;;22.50;58.70;;;;;;5005492;28;19964;-68
2022/06/05 06:08:33;;;;;;;;;;;22.50;58.90;;;;;;5005157;28;19921;-67
2022/06/05 06:10:58;;;;;;;;;;;22.40;58.80;;;;;;5004296;28;19913;-67
2022/06/05 06:13:24;;;;;;;;;;;22.40;59.00;;;;;;5004877;28;20294;-68
2022/06/05 06:15:49;;;;;;;;;;;22.40;59.00;;;;;;5005643;28;19962;-68
2022/06/05 06:18:15;;;;;;;;;;;22.50;59.20;;;;;;4988439;28;20343;-67
2022/06/05 06:20:41;;;;;;;;;;;22.50;59.30;;;;;;5025132;28;19917;-67
2022/06/05 06:23:06;;;;;;;;;;;22.50;59.30;;;;;;5025354;28;19971;-67
2022/06/05 06:25:32;;;;;;;;;;;22.50;58.70;;;;;;5023561;28;20161;-70
2022/06/05 06:27:57;;;;;;;;;;;22.50;58.90;;;;;;5009529;28;20051;-68
2022/06/05 06:30:22;;;;;;;;;;;22.40;59.20;;;;;;5006352;28;19975;-67
2022/06/05 06:32:48;;;;;;;;;;;22.40;59.10;;;;;;5005182;28;20394;-68
2022/06/05 06:35:13;;;;;;;;;;;22.40;59.10;;;;;;5005981;28;19913;-68
2022/06/05 06:37:39;;;;;;;;;;;22.50;59.20;;;;;;5004929;28;19914;-67
2022/06/05 06:40:04;;;;;;;;;;;22.30;59.20;;;;;;5004659;28;19929;-68
2022/06/05 06:42:30;;;;;;;;;;;22.30;59.70;;;;;;5004709;28;19924;-66
2022/06/05 06:44:56;;;;;;;;;;;22.30;59.30;;;;;;5004569;28;20163;-67
2022/06/05 06:47:21;;;;;;;;;;;22.30;59.60;;;;;;5003564;28;19918;-65
2022/06/05 06:49:46;;;;;;;;;;;22.30;59.40;;;;;;5004693;28;19980;-68
2022/06/05 06:52:12;;;;;;;;;;;22.40;59.50;;;;;;5006541;28;19925;-67
2022/06/05 06:54:37;;;;;;;;;;;22.40;59.40;;;;;;5004623;28;19976;-64
2022/06/05 06:57:03;;;;;;;;;;;22.40;59.50;;;;;;5004664;28;20440;-67
2022/06/05 06:59:28;;;;;;;;;;;22.40;59.10;;;;;;5004714;28;19921;-68
2022/06/05 07:01:54;;;;;;;;;;;22.40;59.30;;;;;;4987216;28;19920;-67
2022/06/05 07:04:21;;;;;;;;;;;22.40;59.50;;;;;;5004595;28;19974;-68
2022/06/05 07:06:47;;;;;;;;;;;22.30;59.40;;;;;;5004758;28;19921;-67
2022/06/05 07:09:14;;;;;;;;;;;22.30;59.20;;;;;;5004194;28;19982;-68
2022/06/05 07:11:40;;;;;;;;;;;22.30;59.40;;;;;;5004338;28;19924;-65
2022/06/05 07:14:05;;;;;;;;;;;22.40;59.50;;;;;;5004451;28;20402;-68
2022/06/05 07:16:31;;;;;;;;;;;22.40;59.30;;;;;;5004101;28;19914;-67
2022/06/05 07:18:56;;;;;;;;;;;22.30;59.40;;;;;;5004722;28;20330;-68
2022/06/05 07:21:22;;;;;;;;;;;22.40;59.40;;;;;;5004246;28;19921;-66
2022/06/05 07:23:48;;;;;;;;;;;22.40;59.40;;;;;;5004343;28;19971;-65
2022/06/05 07:26:14;;;;;;;;;;;22.30;58.80;;;;;;5004803;28;19913;-68
2022/06/05 07:28:39;;;;;;;;;;;22.20;59.60;;;;;;5004156;28;19968;-68
2022/06/05 07:31:05;;;;;;;;;;;22.30;59.60;;;;;;5003882;28;20312;-67
2022/06/05 07:33:30;;;;;;;;;;;22.30;59.40;;;;;;5004246;28;20005;-68
2022/06/05 07:35:56;;;;;;;;;;;22.40;59.70;;;;;;4986800;28;19913;-68
2022/06/05 07:38:22;;;;;;;;;;;22.30;59.40;;;;;;5004722;28;19957;-68
2022/06/05 07:40:47;;;;;;;;;;;22.40;59.40;;;;;;5004627;28;19937;-67
2022/06/05 07:43:13;;;;;;;;;;;22.30;59.40;;;;;;5004937;28;19920;-67
2022/06/05 07:45:38;;;;;;;;;;;22.40;59.60;;;;;;5003833;28;19918;-67
2022/06/05 07:48:04;;;;;;;;;;;22.40;59.70;;;;;;5004093;28;19917;-68
2022/06/05 07:50:29;;;;;;;;;;;22.40;59.70;;;;;;5004214;28;19972;-66
2022/06/05 07:55:39;;;;;;;;;;;22.40;60.20;;;;;;5003894;28;19956;-68
2022/06/05 07:58:04;;;;;;;;;;;22.40;59.70;;;;;;5003667;28;19922;-68
2022/06/05 08:00:30;;;;;;;;;;;22.40;59.60;;;;;;5003901;28;19968;-68
2022/06/05 08:02:55;;;;;;;;;;;22.40;59.50;;;;;;5003834;28;19921;-67
2022/06/05 08:05:20;;;;;;;;;;;22.40;59.50;;;;;;5003661;28;20280;-67
2022/06/05 08:07:46;;;;;;;;;;;22.40;59.50;;;;;;5004562;28;19968;-68
2022/06/05 08:10:11;;;;;;;;;;;22.50;60.00;;;;;;5004180;28;19914;-67
2022/06/05 08:12:37;;;;;;;;;;;22.50;59.70;;;;;;5004284;28;19928;-67
2022/06/05 08:15:04;;;;;;;;;;;22.40;59.50;;;;;;5004189;28;19921;-68
2022/06/05 08:17:30;;;;;;;;;;;22.40;59.50;;;;;;5004212;28;19914;-67
2022/06/05 08:19:56;;;;;;;;;;;22.40;59.40;;;;;;5004032;28;20352;-69
2022/06/05 08:22:22;;;;;;;;;;;22.40;59.40;;;;;;5003801;28;19992;-68
2022/06/05 08:24:47;;;;;;;;;;;22.50;59.60;;;;;;5003888;28;20013;-66
2022/06/05 08:27:14;;;;;;;;;;;22.50;59.30;;;;;;5004328;28;19917;-68
2022/06/05 08:29:39;;;;;;;;;;;22.40;59.40;;;;;;4986315;28;20446;-67
2022/06/05 08:32:05;;;;;;;;;;;22.40;59.40;;;;;;5003720;28;19913;-67
2022/06/05 08:34:30;;;;;;;;;;;22.50;60.00;;;;;;4985924;28;19913;-68
2022/06/05 08:42:43;;;;;;;;;;;22.50;59.30;;;;;;5007425;28;19920;-68
2022/06/05 08:45:15;;;;;;;;;;;22.50;59.10;;;;;;4987402;28;19922;-67
2022/06/05 08:47:53;;;;;;;;;;;22.50;58.90;;;;;;4986447;28;19918;-68
2022/06/05 08:50:23;;;;;;;;;;;22.50;59.00;;;;;;5041553;28;20420;-68
2022/06/05 08:52:50;;;;;;;;;;;22.50;58.90;;;;;;5007609;28;19917;-67
2022/06/05 08:55:19;;;;;;;;;;;22.50;59.30;;;;;;4990711;28;19921;-68
2022/06/05 08:57:47;;;;;;;;;;;22.50;59.10;;;;;;5028290;28;20553;-65
2022/06/05 09:00:21;;;;;;;;;;;22.50;59.10;;;;;;5013049;28;20529;-68
2022/06/05 09:02:54;;;;;;;;;;;22.50;59.00;;;;;;5024976;28;20593;-67
2022/06/05 09:05:24;;;;;;;;;;;22.50;59.00;;;;;;4994380;28;19984;-66
2022/06/05 09:07:51;;;;;;;;;;;22.50;58.90;;;;;;4970038;28;19951;-67
2022/06/05 09:10:23;;;;;;;;;;;22.60;59.00;;;;;;4987338;28;20570;-67
2022/06/05 09:12:50;;;;;;;;;;;22.50;59.30;;;;;;5006121;28;19933;-68
2022/06/05 09:15:18;;;;;;;;;;;22.50;59.00;;;;;;4988766;28;19953;-68
2022/06/05 09:17:45;;;;;;;;;;;22.50;59.30;;;;;;4988869;28;20391;-67
2022/06/05 09:20:14;;;;;;;;;;;22.60;59.20;;;;;;4987121;28;20324;-69
2022/06/05 09:22:42;;;;;;;;;;;22.60;59.20;;;;;;4996566;28;20362;-68
2022/06/05 09:25:26;;;;;;;;;;;22.60;58.90;;;;;;5021742;28;19917;-70
2022/06/05 09:27:55;;;;;;;;;;;22.60;58.90;;;;;;5023812;28;19925;-68
2022/06/05 09:30:29;;;;;;;;;;;22.60;58.90;;;;;;5007812;28;19995;-69
2022/06/05 09:33:03;;;;;;;;;;;22.70;58.90;;;;;;5006858;28;19999;-68
2022/06/05 09:35:28;;;;;;;;;;;22.70;58.90;;;;;;5022231;28;19925;-70
2022/06/05 09:37:57;;;;;;;;;;;22.60;59.00;;;;;;5025743;28;19913;-67
2022/06/05 09:40:26;;;;;;;;;;;22.70;59.00;;;;;;5024823;28;19920;-67
2022/06/05 09:43:05;;;;;;;;;;;22.60;59.00;;;;;;5008434;28;20393;-67
2022/06/05 09:45:33;;;;;;;;;;;22.60;59.10;;;;;;5008345;28;20007;-67
2022/06/05 09:48:18;;;;;;;;;;;22.60;59.10;;;;;;5008614;28;19923;-68
2022/06/05 09:50:43;;;;;;;;;;;22.60;59.10;;;;;;5026860;28;19945;-68
2022/06/05 09:53:15;;;;;;;;;;;22.60;58.90;;;;;;5026821;28;20401;-68
2022/06/05 09:55:50;;;;;;;;;;;22.70;58.90;;;;;;5009960;28;19951;-69
2022/06/05 09:58:27;;;;;;;;;;;22.60;58.90;;;;;;5015306;28;20399;-69
2022/06/05 10:00:59;;;;;;;;;;;22.60;59.00;;;;;;5024682;28;19921;-66
2022/06/05 10:03:25;;;;;;;;;;;22.60;59.20;;;;;;5028431;28;20159;-67
2022/06/05 10:06:05;;;;;;;;;;;22.60;58.90;;;;;;4998662;28;19921;-68
2022/06/05 10:08:36;;;;;;;;;;;22.60;59.00;;;;;;5006722;28;19949;-66
2022/06/05 10:13:29;;;;;;;;;;;22.70;58.80;;;;;;5023650;28;20343;-69
2022/06/05 10:15:58;;;;;;;;;;;22.70;59.00;;;;;;5024742;28;19924;-69
2022/06/05 10:18:27;;;;;;;;;;;22.70;58.90;;;;;;5043689;28;19920;-69
2022/06/05 10:20:56;;;;;;;;;;;22.70;58.90;;;;;;5033747;28;20008;-70
2022/06/05 10:23:24;;;;;;;;;;;22.70;59.10;;;;;;5023007;28;19939;-68
2022/06/05 10:25:51;;;;;;;;;;;22.70;59.00;;;;;;5035601;28;20414;-68
2022/06/05 10:28:18;;;;;;;;;;;22.70;58.90;;;;;;5044113;28;19925;-68
2022/06/05 10:30:55;;;;;;;;;;;22.70;59.10;;;;;;5026494;28;20024;-68
2022/06/05 10:33:25;;;;;;;;;;;22.70;59.10;;;;;;5005461;28;20505;-69
2022/06/05 10:35:53;;;;;;;;;;;22.70;59.20;;;;;;5004291;28;19912;-69
2022/06/05 10:38:19;;;;;;;;;;;22.70;59.00;;;;;;5048297;28;19916;-69
2022/06/05 10:40:46;;;;;;;;;;;22.70;59.00;;;;;;5047617;28;19959;-70
2022/06/05 10:43:27;;;;;;;;;;;22.70;58.90;;;;;;5031243;28;19913;-70
2022/06/05 10:46:21;;;;;;;;;;;22.70;58.80;;;;;;5013317;28;20351;-70
2022/06/05 10:48:49;;;;;;;;;;;22.70;58.70;;;;;;5020989;28;20016;-70
2022/06/05 10:51:24;;;;;;;;;;;22.70;58.80;;;;;;5042520;28;21185;-69
2022/06/05 10:54:00;;;;;;;;;;;22.80;58.50;;;;;;5022169;28;20381;-70
2022/06/05 10:56:29;;;;;;;;;;;22.80;58.50;;;;;;5034385;28;19919;-69
2022/06/05 10:58:59;;;;;;;;;;;22.80;58.50;;;;;;5035279;28;19917;-71
2022/06/05 11:01:30;;;;;;;;;;;22.80;58.70;;;;;;5018580;28;19917;-70
2022/06/05 11:04:09;;;;;;;;;;;22.80;58.70;;;;;;5026466;28;19913;-71
2022/06/05 11:06:42;;;;;;;;;;;22.80;58.80;;;;;;5039668;28;19924;-71
2022/06/05 11:09:26;;;;;;;;;;;22.80;59.20;;;;;;5023332;28;20319;-71
2022/06/05 11:14:46;;;;;;;;;;;22.80;58.30;;;;;;5042800;28;20564;-70
2022/06/05 11:17:25;;;;;;;;;;;22.80;58.30;;;;;;5042699;28;20448;-71
2022/06/05 11:19:53;;;;;;;;;;;22.80;58.10;;;;;;5025377;28;20742;-71
2022/06/05 11:22:18;;;;;;;;;;;22.80;58.30;;;;;;5044394;28;19917;-70
2022/06/05 11:24:48;;;;;;;;;;;22.80;58.60;;;;;;5009978;28;19920;-69
2022/06/05 11:27:14;;;;;;;;;;;23.00;59.30;;;;;;5009571;28;19923;-70
2022/06/05 11:29:51;;;;;;;;;;;23.00;58.60;;;;;;5042819;28;19957;-69
2022/06/05 11:32:40;;;;;;;;;;;23.00;58.60;;;;;;5023040;28;20276;-70
2022/06/05 11:35:11;;;;;;;;;;;22.90;58.00;;;;;;5017539;28;19972;-68
2022/06/05 11:37:42;;;;;;;;;;;23.00;58.30;;;;;;5039283;28;20394;-70
2022/06/05 11:40:20;;;;;;;;;;;23.20;57.30;;;;;;5042778;28;19963;-71
2022/06/05 11:42:50;;;;;;;;;;;23.20;57.60;;;;;;5029076;28;19962;-71
2022/06/05 11:45:25;;;;;;;;;;;23.10;57.70;;;;;;5026194;28;20019;-72
2022/06/05 11:47:56;;;;;;;;;;;23.10;57.80;;;;;;5025327;28;19980;-72
2022/06/05 11:50:33;;;;;;;;;;;23.00;57.90;;;;;;5012657;28;19917;-71
2022/06/05 11:53:03;;;;;;;;;;;23.00;58.00;;;;;;5025576;28;19913;-71
2022/06/05 11:55:30;;;;;;;;;;;23.00;57.60;;;;;;5025876;28;19922;-72
2022/06/05 11:58:00;;;;;;;;;;;23.00;57.40;;;;;;5025993;28;19913;-72
2022/06/05 12:00:31;;;;;;;;;;;23.00;57.40;;;;;;5042915;28;20329;-72
2022/06/05 12:03:07;;;;;;;;;;;23.00;57.70;;;;;;5026115;28;20355;-72
2022/06/05 12:05:59;;;;;;;;;;;23.00;57.80;;;;;;5025810;28;20545;-71
2022/06/05 12:08:28;;;;;;;;;;;23.00;58.00;;;;;;5028647;28;19971;-72
2022/06/05 12:11:04;;;;;;;;;;;23.00;58.20;;;;;;5042781;28;20407;-72
2022/06/05 12:13:51;;;;;;;;;;;23.00;58.30;;;;;;5029655;28;19936;-70
2022/06/05 12:16:20;;;;;;;;;;;23.00;58.30;;;;;;5046383;28;19917;-71
2022/06/05 12:18:49;;;;;;;;;;;23.00;58.40;;;;;;5009676;28;19917;-71
2022/06/05 12:21:17;;;;;;;;;;;23.00;58.40;;;;;;5026114;28;19917;-72
2022/06/05 12:23:46;;;;;;;;;;;23.00;58.60;;;;;;5029289;28;19920;-71
2022/06/05 12:26:21;;;;;;;;;;;23.00;58.50;;;;;;5046407;28;19956;-71
2022/06/05 12:28:52;;;;;;;;;;;23.00;58.60;;;;;;5027252;28;20612;-69
2022/06/05 12:31:24;;;;;;;;;;;23.00;58.60;;;;;;5043916;28;20466;-70
2022/06/05 12:33:51;;;;;;;;;;;23.00;58.80;;;;;;5011072;28;19913;-70
2022/06/05 12:36:29;;;;;;;;;;;23.00;58.80;;;;;;5043092;28;20505;-70
2022/06/05 12:38:56;;;;;;;;;;;23.00;58.80;;;;;;5012686;28;19921;-68
2022/06/05 12:41:28;;;;;;;;;;;23.00;58.90;;;;;;5025478;28;20396;-71
2022/06/05 12:44:05;;;;;;;;;;;23.00;58.90;;;;;;5014924;28;19916;-69
2022/06/05 12:46:34;;;;;;;;;;;23.00;58.90;;;;;;5028225;28;20304;-71
2022/06/05 12:49:04;;;;;;;;;;;23.10;58.40;;;;;;5029784;28;19928;-67
2022/06/05 12:51:29;;;;;;;;;;;23.10;58.10;;;;;;5028329;28;19913;-71
2022/06/05 12:53:55;;;;;;;;;;;23.10;58.10;;;;;;5026350;28;19935;-71
2022/06/05 12:56:23;;;;;;;;;;;23.10;58.40;;;;;;5044868;28;19913;-71
2022/06/05 12:58:52;;;;;;;;;;;23.10;58.10;;;;;;5041743;28;20007;-69
2022/06/05 13:01:19;;;;;;;;;;;23.10;58.10;;;;;;5025745;28;19913;-71
2022/06/05 13:03:44;;;;;;;;;;;23.10;58.20;;;;;;5039199;28;19920;-66
2022/06/05 13:06:22;;;;;;;;;;;23.10;58.10;;;;;;5042974;28;19924;-70
2022/06/05 13:08:48;;;;;;;;;;;23.10;58.20;;;;;;5040240;28;19917;-72
2022/06/05 13:11:20;;;;;;;;;;;23.10;58.40;;;;;;5044161;28;19913;-70
2022/06/05 13:13:46;;;;;;;;;;;23.10;58.20;;;;;;5028593;28;19925;-70
2022/06/05 13:16:27;;;;;;;;;;;23.10;58.20;;;;;;5025912;28;19944;-70
2022/06/05 13:18:58;;;;;;;;;;;23.10;58.30;;;;;;5021520;28;20498;-70
2022/06/05 13:21:26;;;;;;;;;;;23.10;58.10;;;;;;5045481;28;19917;-70
2022/06/05 13:24:11;;;;;;;;;;;23.10;58.30;;;;;;5034685;28;19921;-70
2022/06/05 13:26:55;;;;;;;;;;;23.10;58.40;;;;;;5046226;28;19920;-70
2022/06/05 13:29:29;;;;;;;;;;;23.10;58.30;;;;;;5041035;28;20387;-69
2022/06/05 13:32:02;;;;;;;;;;;23.10;58.20;;;;;;5025257;28;19924;-70
2022/06/05 13:34:33;;;;;;;;;;;23.10;58.20;;;;;;5027702;28;19913;-70
2022/06/05 13:37:14;;;;;;;;;;;23.20;58.30;;;;;;5045436;28;19948;-70
2022/06/05 13:39:41;;;;;;;;;;;23.20;58.30;;;;;;5011269;28;19963;-71
2022/06/05 13:42:11;;;;;;;;;;;23.20;58.30;;;;;;5044889;28;19966;-70
2022/06/05 13:44:36;;;;;;;;;;;23.20;58.30;;;;;;5045286;28;20011;-70
2022/06/05 13:47:20;;;;;;;;;;;23.20;58.10;;;;;;5028277;28;19919;-70
2022/06/05 13:50:05;;;;;;;;;;;23.20;58.10;;;;;;5028856;28;19916;-69
2022/06/05 13:52:32;;;;;;;;;;;23.20;58.10;;;;;;5025485;28;19913;-69
2022/06/05 13:55:02;;;;;;;;;;;23.20;58.30;;;;;;5026658;28;19952;-72
2022/06/05 13:57:28;;;;;;;;;;;23.20;58.10;;;;;;5027371;28;19920;-72
2022/06/05 13:59:56;;;;;;;;;;;23.20;58.10;;;;;;5029220;28;19917;-71
2022/06/05 14:02:24;;;;;;;;;;;23.20;58.00;;;;;;5023885;28;19963;-71
2022/06/05 14:05:06;;;;;;;;;;;23.20;58.00;;;;;;5039692;28;19913;-71
2022/06/05 14:07:38;;;;;;;;;;;23.20;58.10;;;;;;5027299;28;19923;-71
2022/06/05 14:10:11;;;;;;;;;;;23.20;58.10;;;;;;5028945;28;19967;-70
2022/06/05 14:12:42;;;;;;;;;;;23.20;58.00;;;;;;5023860;28;19975;-71
2022/06/05 14:15:27;;;;;;;;;;;23.20;57.90;;;;;;5026939;28;20015;-71
2022/06/05 14:17:53;;;;;;;;;;;23.20;58.10;;;;;;5010827;28;19913;-70
2022/06/05 14:20:20;;;;;;;;;;;23.20;58.10;;;;;;5011474;28;19920;-70
2022/06/05 14:22:50;;;;;;;;;;;23.20;58.10;;;;;;5044305;28;20016;-71
2022/06/05 14:25:19;;;;;;;;;;;23.20;58.10;;;;;;5023336;28;20311;-71
2022/06/05 14:27:45;;;;;;;;;;;23.20;57.90;;;;;;5022678;28;19927;-71
2022/06/05 14:30:31;;;;;;;;;;;23.30;58.20;;;;;;5037838;28;19913;-71
2022/06/05 14:33:02;;;;;;;;;;;23.20;57.90;;;;;;5027917;28;21328;-69
2022/06/05 14:35:29;;;;;;;;;;;23.30;58.00;;;;;;5044412;28;19920;-71
2022/06/05 14:38:03;;;;;;;;;;;23.20;57.80;;;;;;5028826;28;19917;-68
2022/06/05 14:40:30;;;;;;;;;;;23.20;58.00;;;;;;5029639;28;19925;-70
2022/06/05 14:43:03;;;;;;;;;;;23.20;57.90;;;;;;5023693;28;19920;-71
2022/06/05 14:45:34;;;;;;;;;;;23.20;57.90;;;;;;5026351;28;19919;-71
2022/06/05 14:48:09;;;;;;;;;;;23.30;58.10;;;;;;5027400;28;19949;-71